createdAt,value
2018-12-13T00:00:44.893Z,2.62
2018-12-13T00:03:17.398Z,2.60
2018-12-13T00:05:49.802Z,2.55
2018-12-13T00:08:20.282Z,2.53
2018-12-13T00:10:50.626Z,2.44
2018-12-13T00:13:21.038Z,2.43
2018-12-13T00:15:51.417Z,2.42
2018-12-13T00:18:21.794Z,2.41
2018-12-13T00:20:52.186Z,2.39
2018-12-13T00:23:22.529Z,2.34
2018-12-13T00:25:52.861Z,2.22
2018-12-13T00:28:23.034Z,2.19
2018-12-13T00:30:53.319Z,2.19
2018-12-13T00:33:23.567Z,2.20
2018-12-13T00:35:54.160Z,2.19
2018-12-13T00:38:24.361Z,2.20
2018-12-13T00:40:55.332Z,2.14
2018-12-13T00:43:25.511Z,2.15
2018-12-13T00:45:55.841Z,2.14
2018-12-13T00:48:26.006Z,2.16
2018-12-13T00:52:25.560Z,2.05
2018-12-13T00:54:55.758Z,2.05
2018-12-13T00:57:26.088Z,2.03
2018-12-13T00:59:56.324Z,2.04
2018-12-13T01:02:26.660Z,2.04
2018-12-13T01:04:56.900Z,2.08
2018-12-13T01:07:27.249Z,2.15
2018-12-13T01:09:57.537Z,2.17
2018-12-13T01:12:27.562Z,2.07
2018-12-13T01:14:57.797Z,1.96
2018-12-13T01:17:28.082Z,1.86
2018-12-13T01:22:27.407Z,1.87
2018-12-13T01:24:57.703Z,1.86
2018-12-13T01:27:27.886Z,1.73
2018-12-13T01:29:59.197Z,1.68
2018-12-13T01:32:29.514Z,1.76
2018-12-13T01:34:59.767Z,1.75
2018-12-13T01:37:30.050Z,1.77
2018-12-13T01:40:00.189Z,1.76
2018-12-13T01:42:30.427Z,1.73
2018-12-13T01:45:00.571Z,1.68
2018-12-13T01:47:30.673Z,1.59
2018-12-13T01:50:00.995Z,1.59
2018-12-13T01:52:31.189Z,1.59
2018-12-13T01:55:01.583Z,1.52
2018-12-13T01:57:31.605Z,1.55
2018-12-13T02:00:01.955Z,1.49
2018-12-13T02:02:34.182Z,1.48
2018-12-13T02:05:04.553Z,1.41
2018-12-13T02:07:34.616Z,1.39
2018-12-13T02:10:05.595Z,1.26
2018-12-13T02:12:35.851Z,1.30
2018-12-13T02:15:06.334Z,1.33
2018-12-13T02:17:36.537Z,1.26
2018-12-13T02:20:07.193Z,1.27
2018-12-13T02:22:37.417Z,1.24
2018-12-13T02:25:07.617Z,1.19
2018-12-13T02:27:38.749Z,1.15
2018-12-13T02:30:11.665Z,1.21
2018-12-13T02:32:43.014Z,1.27
2018-12-13T02:35:13.696Z,1.10
2018-12-13T02:37:43.999Z,1.13
2018-12-13T02:40:14.403Z,1.14
2018-12-13T02:42:44.498Z,0.98
2018-12-13T02:45:14.923Z,0.85
2018-12-13T02:47:45.257Z,0.72
2018-12-13T02:50:15.524Z,0.62
2018-12-13T02:52:45.773Z,0.61
2018-12-13T02:55:16.046Z,0.72
2018-12-13T02:57:46.219Z,0.68
2018-12-13T03:00:16.395Z,0.51
2018-12-13T03:02:47.808Z,0.38
2018-12-13T03:05:19.024Z,0.33
2018-12-13T03:07:49.247Z,0.30
2018-12-13T03:10:19.651Z,0.22
2018-12-13T03:12:50.029Z,0.14
2018-12-13T03:15:20.865Z,0.28
2018-12-13T03:17:51.172Z,0.36
2018-12-13T03:20:21.531Z,0.44
2018-12-13T03:22:51.847Z,0.43
2018-12-13T03:25:22.226Z,0.55
2018-12-13T03:27:52.581Z,0.40
2018-12-13T03:30:22.758Z,0.35
2018-12-13T03:32:53.090Z,0.40
2018-12-13T03:35:23.292Z,0.46
2018-12-13T03:37:55.435Z,0.46
2018-12-13T03:40:25.666Z,0.52
2018-12-13T03:42:55.863Z,0.56
2018-12-13T03:45:25.987Z,0.63
2018-12-13T03:47:56.333Z,0.61
2018-12-13T03:50:26.598Z,0.53
2018-12-13T03:52:56.997Z,0.61
2018-12-13T03:55:27.200Z,0.64
2018-12-13T03:57:57.472Z,0.53
2018-12-13T04:00:27.464Z,0.44
2018-12-13T04:02:57.616Z,0.41
2018-12-13T04:05:27.956Z,0.32
2018-12-13T04:07:58.244Z,0.31
2018-12-13T04:10:29.316Z,0.33
2018-12-13T04:12:59.505Z,0.46
2018-12-13T04:15:29.728Z,0.52
2018-12-13T04:17:59.917Z,0.56
2018-12-13T04:20:32.121Z,0.58
2018-12-13T04:23:02.452Z,0.56
2018-12-13T04:25:32.708Z,0.61
2018-12-13T04:28:02.847Z,0.56
2018-12-13T04:30:34.632Z,0.51
2018-12-13T04:33:05.052Z,0.55
2018-12-13T04:35:35.237Z,0.60
2018-12-13T04:38:05.420Z,0.67
2018-12-13T04:40:36.116Z,0.65
2018-12-13T04:43:06.308Z,0.61
2018-12-13T04:45:36.369Z,0.57
2018-12-13T04:48:06.725Z,0.60
2018-12-13T04:50:36.854Z,0.58
2018-12-13T04:53:07.246Z,0.65
2018-12-13T04:55:37.583Z,0.61
2018-12-13T04:58:07.778Z,0.62
2018-12-13T05:00:37.959Z,0.63
2018-12-13T05:03:08.083Z,0.56
2018-12-13T05:05:38.380Z,0.59
2018-12-13T05:08:09.031Z,0.54
2018-12-13T05:10:53.086Z,0.52
2018-12-13T05:13:23.484Z,0.38
2018-12-13T05:15:53.809Z,0.22
2018-12-13T05:18:24.123Z,0.07
2018-12-13T05:20:54.421Z,-0.09
2018-12-13T05:23:25.079Z,-0.30
2018-12-13T05:25:55.237Z,-0.47
2018-12-13T05:28:25.587Z,-0.56
2018-12-13T05:30:56.747Z,-0.52
2018-12-13T05:33:26.872Z,-0.71
2018-12-13T05:35:57.190Z,-0.67
2018-12-13T05:38:27.357Z,-0.57
2018-12-13T05:40:58.726Z,-0.63
2018-12-13T05:43:30.122Z,-0.54
2018-12-13T05:46:00.348Z,-0.52
2018-12-13T05:48:30.630Z,-0.50
2018-12-13T05:51:00.929Z,-0.39
2018-12-13T05:53:31.030Z,-0.42
2018-12-13T05:56:01.531Z,-0.31
2018-12-13T05:58:31.777Z,-0.26
2018-12-13T06:01:02.028Z,-0.24
2018-12-13T06:03:32.266Z,-0.14
2018-12-13T06:06:02.500Z,-0.11
2018-12-13T06:08:32.869Z,-0.01
2018-12-13T06:11:03.230Z,0.12
2018-12-13T06:13:33.315Z,0.12
2018-12-13T06:16:03.547Z,0.19
2018-12-13T06:18:33.751Z,0.27
2018-12-13T06:21:04.009Z,0.40
2018-12-13T06:23:34.335Z,0.36
2018-12-13T06:26:04.802Z,0.34
2018-12-13T06:28:35.090Z,0.20
2018-12-13T06:31:05.903Z,0.00
2018-12-13T06:33:36.322Z,0.15
2018-12-13T06:36:06.446Z,0.24
2018-12-13T06:38:36.680Z,0.48
2018-12-13T06:41:06.821Z,0.30
2018-12-13T06:43:37.217Z,0.22
2018-12-13T06:46:07.617Z,0.45
2018-12-13T06:48:37.883Z,0.40
2018-12-13T06:51:08.379Z,0.34
2018-12-13T06:53:38.564Z,0.36
2018-12-13T06:56:08.727Z,0.61
2018-12-13T06:58:38.971Z,0.66
2018-12-13T07:01:09.195Z,1.19
2018-12-13T07:03:39.549Z,3.04
2018-12-13T07:06:09.792Z,5.28
2018-12-13T07:08:40.165Z,7.01
2018-12-13T07:11:10.559Z,8.56
2018-12-13T07:13:40.963Z,9.52
2018-12-13T07:16:11.261Z,10.57
2018-12-13T07:18:42.457Z,10.72
2018-12-13T07:21:12.778Z,10.72
2018-12-13T07:23:43.205Z,10.34
2018-12-13T07:26:13.533Z,11.17
2018-12-13T07:28:43.765Z,12.30
2018-12-13T07:31:13.853Z,12.63
2018-12-13T07:33:44.132Z,12.29
2018-12-13T07:36:14.499Z,12.98
2018-12-13T07:38:44.819Z,13.13
2018-12-13T07:41:15.236Z,14.15
2018-12-13T07:43:45.435Z,15.85
2018-12-13T07:46:15.687Z,15.51
2018-12-13T07:48:46.017Z,17.33
2018-12-13T07:51:16.240Z,18.25
2018-12-13T07:53:46.512Z,18.43
2018-12-13T07:56:16.818Z,19.68
2018-12-13T07:58:46.910Z,21.28
2018-12-13T08:01:16.989Z,22.28
2018-12-13T08:03:47.221Z,21.69
2018-12-13T08:06:17.534Z,23.49
2018-12-13T08:08:47.931Z,24.43
2018-12-13T08:11:18.149Z,22.91
2018-12-13T08:13:48.418Z,23.81
2018-12-13T08:16:18.524Z,25.10
2018-12-13T08:18:51.044Z,26.26
2018-12-13T08:21:23.505Z,27.21
2018-12-13T08:23:53.874Z,27.80
2018-12-13T08:26:24.042Z,27.91
2018-12-13T08:28:54.143Z,27.52
2018-12-13T08:31:24.467Z,27.89
2018-12-13T08:33:54.590Z,27.49
2018-12-13T08:36:24.916Z,28.14
2018-12-13T08:38:55.177Z,28.47
2018-12-13T08:41:25.383Z,28.99
2018-12-13T08:43:55.524Z,28.12
2018-12-13T08:46:25.687Z,28.01
2018-12-13T08:48:55.697Z,28.27
2018-12-13T08:51:25.936Z,28.11
2018-12-13T08:53:56.138Z,28.77
2018-12-13T08:56:32.736Z,29.04
2018-12-13T08:59:02.997Z,28.39
2018-12-13T09:01:33.240Z,27.31
2018-12-13T09:04:03.410Z,25.99
2018-12-13T09:06:33.943Z,25.02
2018-12-13T09:09:05.888Z,25.04
2018-12-13T09:11:37.118Z,25.33
2018-12-13T09:14:07.400Z,25.89
2018-12-13T09:16:37.856Z,25.04
2018-12-13T09:19:08.027Z,23.74
2018-12-13T09:21:39.979Z,22.31
2018-12-13T09:24:10.243Z,20.37
2018-12-13T09:26:40.460Z,18.59
2018-12-13T09:29:10.628Z,17.02
2018-12-13T09:31:40.884Z,15.80
2018-12-13T09:34:11.393Z,14.67
2018-12-13T09:36:41.682Z,14.31
2018-12-13T09:39:11.870Z,13.81
2018-12-13T09:41:42.009Z,13.21
2018-12-13T09:44:17.073Z,13.35
2018-12-13T09:46:47.987Z,12.77
2018-12-13T09:49:18.241Z,12.53
2018-12-13T09:51:48.503Z,12.74
2018-12-13T09:54:18.614Z,13.55
2018-12-13T09:56:49.022Z,15.81
2018-12-13T09:59:19.282Z,17.33
2018-12-13T10:01:49.486Z,18.68
2018-12-13T10:04:19.671Z,19.21
2018-12-13T10:06:49.905Z,20.38
2018-12-13T10:09:20.097Z,21.78
2018-12-13T10:11:50.172Z,23.58
2018-12-13T10:14:20.316Z,24.67
2018-12-13T10:16:50.542Z,24.64
2018-12-13T10:19:20.911Z,25.77
2018-12-13T10:21:51.388Z,25.98
2018-12-13T10:24:21.678Z,26.42
2018-12-13T10:26:51.707Z,27.14
2018-12-13T10:29:23.014Z,27.68
2018-12-13T10:31:53.272Z,27.77
2018-12-13T10:34:23.569Z,27.56
2018-12-13T10:36:54.920Z,27.97
2018-12-13T10:39:25.345Z,27.98
2018-12-13T10:41:55.621Z,27.83
2018-12-13T10:44:31.109Z,27.68
2018-12-13T10:47:02.051Z,27.14
2018-12-13T10:49:32.307Z,26.94
2018-12-13T10:52:02.703Z,27.01
2018-12-13T10:54:32.891Z,27.10
2018-12-13T10:57:03.186Z,26.46
2018-12-13T10:59:33.412Z,27.37
2018-12-13T11:02:05.756Z,27.68
2018-12-13T11:04:36.031Z,26.71
2018-12-13T11:07:06.165Z,25.81
2018-12-13T11:09:36.326Z,25.50
2018-12-13T11:12:06.546Z,25.44
2018-12-13T11:14:36.591Z,25.72
2018-12-13T11:17:06.728Z,26.33
2018-12-13T11:19:37.491Z,26.06
2018-12-13T11:22:07.740Z,26.14
2018-12-13T11:24:37.942Z,27.09
2018-12-13T11:27:19.037Z,27.22
2018-12-13T11:30:00.116Z,27.54
2018-12-13T11:32:30.688Z,28.46
2018-12-13T11:35:00.936Z,29.05
2018-12-13T11:37:31.088Z,29.18
2018-12-13T11:40:01.201Z,28.63
2018-12-13T11:42:31.526Z,26.98
2018-12-13T11:45:01.714Z,26.41
2018-12-13T11:47:33.116Z,24.58
2018-12-13T11:50:03.468Z,23.21
2018-12-13T11:52:33.694Z,22.03
2018-12-13T11:55:16.235Z,19.63
2018-12-13T11:57:46.456Z,17.63
2018-12-13T12:00:16.663Z,15.96
2018-12-13T12:02:47.016Z,15.27
2018-12-13T12:05:17.159Z,14.25
2018-12-13T12:07:47.395Z,13.62
2018-12-13T12:10:17.726Z,12.71
2018-12-13T12:12:47.995Z,12.23
2018-12-13T12:15:19.320Z,11.52
2018-12-13T12:17:49.503Z,11.34
2018-12-13T12:20:19.617Z,10.88
2018-12-13T12:22:49.949Z,10.67
2018-12-13T12:25:20.165Z,10.35
2018-12-13T12:27:51.307Z,9.88
2018-12-13T12:30:21.635Z,9.97
2018-12-13T12:32:51.637Z,9.79
2018-12-13T12:35:21.937Z,9.68
2018-12-13T12:37:52.168Z,9.43
2018-12-13T12:40:22.576Z,9.12
2018-12-13T12:42:52.812Z,8.99
2018-12-13T12:45:23.130Z,8.78
2018-12-13T12:47:53.284Z,8.65
2018-12-13T12:50:23.505Z,8.42
2018-12-13T12:52:53.639Z,8.29
2018-12-13T12:55:23.952Z,8.34
2018-12-13T12:57:54.405Z,8.45
2018-12-13T13:00:25.703Z,8.26
2018-12-13T13:02:56.170Z,7.98
2018-12-13T13:05:26.331Z,7.93
2018-12-13T13:07:57.757Z,7.80
2018-12-13T13:10:28.146Z,7.94
2018-12-13T13:12:58.466Z,8.03
2018-12-13T13:15:28.730Z,8.10
2018-12-13T13:17:58.977Z,8.07
2018-12-13T13:20:29.252Z,7.88
2018-12-13T13:22:59.455Z,7.82
2018-12-13T13:25:30.507Z,7.79
2018-12-13T13:28:01.259Z,7.72
2018-12-13T13:30:31.516Z,7.67
2018-12-13T13:33:01.764Z,7.57
2018-12-13T13:35:31.872Z,7.49
2018-12-13T13:38:02.174Z,7.34
2018-12-13T13:40:32.592Z,7.45
2018-12-13T13:43:03.210Z,7.44
2018-12-13T13:45:33.475Z,7.38
2018-12-13T13:48:04.323Z,7.38
2018-12-13T13:50:34.466Z,7.45
2018-12-13T13:53:04.728Z,7.50
2018-12-13T13:55:35.033Z,7.55
2018-12-13T13:58:05.507Z,7.52
2018-12-13T14:00:35.736Z,7.46
2018-12-13T14:03:05.880Z,7.35
2018-12-13T14:05:36.610Z,7.24
2018-12-13T14:08:07.279Z,7.13
2018-12-13T14:10:37.517Z,7.17
2018-12-13T14:13:07.788Z,7.17
2018-12-13T14:15:38.115Z,7.23
2018-12-13T14:18:08.320Z,7.11
2018-12-13T14:20:38.575Z,6.93
2018-12-13T14:23:08.819Z,6.97
2018-12-13T14:25:39.148Z,7.01
2018-12-13T14:28:09.439Z,7.05
2018-12-13T14:30:39.693Z,6.85
2018-12-13T14:33:09.984Z,6.83
2018-12-13T14:35:40.236Z,6.77
2018-12-13T14:38:10.658Z,6.80
2018-12-13T14:40:42.921Z,6.77
2018-12-13T14:43:15.088Z,6.65
2018-12-13T14:45:45.319Z,6.62
2018-12-13T14:48:15.381Z,6.68
2018-12-13T14:50:45.506Z,6.65
2018-12-13T14:53:15.754Z,6.65
2018-12-13T14:55:46.098Z,6.65
2018-12-13T14:58:16.317Z,6.53
2018-12-13T15:00:46.586Z,6.50
2018-12-13T15:03:16.899Z,6.25
2018-12-13T15:05:47.247Z,6.30
2018-12-13T15:08:17.612Z,6.27
2018-12-13T15:10:47.847Z,6.11
2018-12-13T15:13:18.065Z,6.12
2018-12-13T15:15:49.036Z,5.69
2018-12-13T15:18:19.362Z,5.60
2018-12-13T15:20:49.676Z,5.59
2018-12-13T15:23:19.748Z,5.33
2018-12-13T15:25:50.087Z,5.40
2018-12-13T15:28:20.494Z,5.26
2018-12-13T15:30:50.817Z,4.92
2018-12-13T15:33:21.212Z,5.07
2018-12-13T15:35:51.431Z,4.99
2018-12-13T15:38:23.279Z,4.93
2018-12-13T15:40:54.018Z,4.93
2018-12-13T15:43:24.454Z,4.88
2018-12-13T15:45:55.036Z,4.94
2018-12-13T15:48:25.433Z,5.04
2018-12-13T15:50:55.687Z,5.07
2018-12-13T15:53:25.789Z,4.84
2018-12-13T15:55:56.233Z,4.55
2018-12-13T15:58:26.556Z,4.49
2018-12-13T16:00:56.806Z,4.46
2018-12-13T16:03:26.944Z,4.52
2018-12-13T16:05:58.054Z,4.42
2018-12-13T16:08:28.249Z,4.29
2018-12-13T16:10:58.558Z,4.52
2018-12-13T16:13:28.914Z,4.44
2018-12-13T16:15:59.186Z,4.38
2018-12-13T16:18:29.462Z,4.10
2018-12-13T16:20:59.729Z,4.06
2018-12-13T16:23:29.794Z,3.95
2018-12-13T16:26:00.078Z,4.11
2018-12-13T16:28:30.328Z,4.00
2018-12-13T16:31:00.493Z,3.89
2018-12-13T16:33:30.695Z,3.77
2018-12-13T16:36:00.871Z,3.83
2018-12-13T16:38:31.485Z,3.98
2018-12-13T16:41:01.653Z,4.05
2018-12-13T16:43:31.818Z,4.14
2018-12-13T16:46:02.117Z,4.21
2018-12-13T16:48:32.455Z,4.26
2018-12-13T16:51:02.773Z,4.31
2018-12-13T16:53:33.037Z,4.21
2018-12-13T16:56:03.164Z,4.10
2018-12-13T16:58:33.386Z,4.06
2018-12-13T17:01:03.674Z,3.79
2018-12-13T17:03:41.425Z,3.75
2018-12-13T17:06:11.808Z,3.57
2018-12-13T17:08:42.387Z,3.65
2018-12-13T17:11:12.926Z,3.75
2018-12-13T17:13:43.255Z,3.99
2018-12-13T17:16:13.807Z,3.89
2018-12-13T17:18:44.203Z,3.77
2018-12-13T17:21:14.272Z,3.84
2018-12-13T17:23:44.462Z,3.92
2018-12-13T17:26:14.612Z,3.83
2018-12-13T17:28:45.043Z,3.92
2018-12-13T17:31:15.383Z,4.12
2018-12-13T17:33:45.530Z,4.16
2018-12-13T17:36:15.673Z,4.04
2018-12-13T17:38:45.973Z,3.97
2018-12-13T17:41:16.384Z,3.88
2018-12-13T17:43:47.252Z,4.04
2018-12-13T17:46:17.468Z,4.26
2018-12-13T17:48:47.922Z,4.34
2018-12-13T17:51:18.214Z,4.42
2018-12-13T17:53:48.322Z,4.49
2018-12-13T17:56:18.726Z,4.35
2018-12-13T17:58:49.029Z,4.48
2018-12-13T18:01:20.126Z,4.59
2018-12-13T18:03:50.382Z,4.63
2018-12-13T18:06:20.802Z,4.60
2018-12-13T18:08:51.051Z,4.62
2018-12-13T18:11:21.459Z,4.61
2018-12-13T18:13:51.843Z,4.23
2018-12-13T18:16:22.314Z,4.37
2018-12-13T18:18:52.993Z,4.35
2018-12-13T18:21:23.309Z,4.43
2018-12-13T18:23:54.211Z,4.51
2018-12-13T18:26:24.460Z,4.43
2018-12-13T18:28:55.188Z,4.29
2018-12-13T18:31:25.727Z,4.26
2018-12-13T18:33:56.066Z,4.18
2018-12-13T18:36:26.504Z,4.20
2018-12-13T18:38:56.785Z,4.21
2018-12-13T18:41:27.422Z,4.29
2018-12-13T18:43:57.583Z,4.38
2018-12-13T18:46:27.922Z,4.43
2018-12-13T18:48:58.109Z,4.53
2018-12-13T18:51:28.488Z,4.61
2018-12-13T18:53:58.745Z,4.61
2018-12-13T18:56:29.001Z,4.65
2018-12-13T18:58:59.418Z,4.70
2018-12-13T19:01:29.954Z,4.72
2018-12-13T19:04:00.176Z,4.80
2018-12-13T19:06:31.669Z,4.82
2018-12-13T19:09:02.198Z,4.85
2018-12-13T19:11:33.466Z,4.83
2018-12-13T19:14:04.286Z,4.90
2018-12-13T19:16:34.511Z,4.92
2018-12-13T19:19:04.750Z,4.77
2018-12-13T19:21:35.061Z,4.71
2018-12-13T19:24:05.436Z,4.68
2018-12-13T19:26:35.708Z,4.74
2018-12-13T19:29:05.912Z,4.63
2018-12-13T19:31:36.253Z,4.57
2018-12-13T19:34:06.737Z,4.67
2018-12-13T19:36:37.056Z,4.67
2018-12-13T19:39:09.132Z,4.81
2018-12-13T19:41:39.696Z,4.67
2018-12-13T19:44:10.146Z,4.76
2018-12-13T19:46:40.415Z,4.77
2018-12-13T19:49:10.774Z,4.83
2018-12-13T19:51:41.212Z,4.71
2018-12-13T19:54:11.433Z,4.63
2018-12-13T19:56:41.742Z,4.59
2018-12-13T19:59:11.938Z,4.65
2018-12-13T20:01:42.220Z,4.68
2018-12-13T20:04:12.479Z,4.56
2018-12-13T20:06:42.671Z,4.58
2018-12-13T20:09:12.929Z,4.56
2018-12-13T20:11:42.970Z,4.59
2018-12-13T20:14:13.676Z,4.55
2018-12-13T20:16:44.072Z,4.61
2018-12-13T20:19:14.729Z,4.64
2018-12-13T20:21:45.271Z,4.66
2018-12-13T20:24:16.327Z,4.71
2018-12-13T20:26:46.460Z,4.82
2018-12-13T20:29:17.299Z,4.88
2018-12-13T20:31:48.442Z,4.94
2018-12-13T20:34:18.733Z,4.95
2018-12-13T20:36:49.603Z,4.92
2018-12-13T20:39:20.213Z,4.78
2018-12-13T20:41:50.602Z,4.70
2018-12-13T20:44:21.292Z,4.70
2018-12-13T20:46:51.778Z,4.68
2018-12-13T20:49:22.208Z,4.60
2018-12-13T20:51:52.605Z,4.46
2018-12-13T20:54:23.726Z,4.41
2018-12-13T20:56:54.019Z,4.35
2018-12-13T20:59:24.333Z,4.43
2018-12-13T21:01:54.565Z,4.47
2018-12-13T21:04:24.862Z,4.48
2018-12-13T21:07:00.178Z,4.51
2018-12-13T21:09:30.630Z,4.45
2018-12-13T21:12:01.006Z,4.48
2018-12-13T21:14:31.359Z,4.49
2018-12-13T21:17:01.812Z,4.52
2018-12-13T21:19:32.110Z,4.40
2018-12-13T21:22:02.532Z,4.50
2018-12-13T21:24:32.893Z,4.51
2018-12-13T21:27:03.661Z,4.53
2018-12-13T21:29:33.825Z,4.56
2018-12-13T21:32:04.597Z,4.67
2018-12-13T21:34:34.858Z,4.74
2018-12-13T21:37:05.181Z,4.79
2018-12-13T21:39:35.790Z,4.81
2018-12-13T21:42:06.102Z,4.78
2018-12-13T21:44:36.382Z,4.79
2018-12-13T21:47:07.346Z,4.79
2018-12-13T21:49:37.656Z,4.82
2018-12-13T21:52:08.551Z,4.71
2018-12-13T21:54:38.912Z,4.77
2018-12-13T21:57:09.742Z,4.76
2018-12-13T21:59:40.534Z,4.83
2018-12-13T22:02:11.898Z,4.85
2018-12-13T22:04:42.262Z,4.87
2018-12-13T22:07:12.489Z,4.95
2018-12-13T22:09:43.927Z,4.99
2018-12-13T22:13:43.438Z,4.96
2018-12-13T22:16:13.625Z,5.03
2018-12-13T22:18:43.925Z,4.96
2018-12-13T22:21:14.009Z,4.98
2018-12-13T22:23:44.274Z,5.03
2018-12-13T22:26:14.600Z,5.05
2018-12-13T22:28:44.807Z,5.05
2018-12-13T22:31:15.070Z,5.03
2018-12-13T22:33:45.419Z,5.05
2018-12-13T22:36:15.629Z,5.03
2018-12-13T22:38:46.754Z,5.04
2018-12-13T22:41:17.084Z,5.10
2018-12-13T22:43:47.465Z,5.10
2018-12-13T22:46:17.649Z,5.00
2018-12-13T22:48:47.880Z,4.95
2018-12-13T22:51:17.940Z,4.82
2018-12-13T22:53:48.892Z,4.61
2018-12-13T22:56:19.115Z,4.61
2018-12-13T22:58:49.475Z,4.50
2018-12-13T23:01:20.085Z,4.48
2018-12-13T23:03:51.493Z,4.49
2018-12-13T23:06:21.707Z,4.45
2018-12-13T23:08:51.908Z,4.55
2018-12-13T23:11:22.200Z,4.65
2018-12-13T23:13:52.629Z,4.65
2018-12-13T23:16:22.855Z,4.60
2018-12-13T23:18:53.178Z,4.59
2018-12-13T23:21:23.396Z,4.70
2018-12-13T23:23:53.682Z,4.60
2018-12-13T23:26:24.956Z,4.70
2018-12-13T23:28:55.181Z,4.77
2018-12-13T23:31:25.408Z,4.80
2018-12-13T23:33:56.317Z,4.86
2018-12-13T23:36:26.616Z,4.88
2018-12-13T23:38:56.800Z,4.88
2018-12-13T23:41:27.198Z,4.91
2018-12-13T23:43:57.511Z,4.93
2018-12-13T23:46:27.822Z,4.97
2018-12-13T23:48:58.015Z,5.04
2018-12-13T23:51:28.220Z,5.04
2018-12-13T23:53:58.287Z,5.03
2018-12-13T23:56:28.610Z,5.06
2018-12-13T23:58:59.230Z,5.03
